createdAt,value
2022-12-22T00:00:00.882Z,1.20
2022-12-22T00:10:01.012Z,1.10
2022-12-22T00:20:01.955Z,1.10
2022-12-22T00:30:02.439Z,1.20
2022-12-22T00:40:01.477Z,1.10
2022-12-22T00:50:01.133Z,1.00
2022-12-22T01:00:01.046Z,1.20
2022-12-22T01:10:01.271Z,1.20
2022-12-22T01:20:01.053Z,1.10
2022-12-22T01:30:01.616Z,1.50
2022-12-22T01:40:01.060Z,1.20
2022-12-22T01:50:01.130Z,1.50
2022-12-22T02:00:01.042Z,1.00
2022-12-22T02:10:01.804Z,1.10
2022-12-22T02:20:00.909Z,1.10
2022-12-22T02:30:04.657Z,1.10
2022-12-22T02:40:00.958Z,1.30
2022-12-22T02:50:01.896Z,1.00
2022-12-22T03:00:01.302Z,1.20
2022-12-22T03:10:01.286Z,1.10
2022-12-22T03:20:01.103Z,1.00
2022-12-22T03:30:01.403Z,1.10
2022-12-22T03:40:01.031Z,1.20
2022-12-22T03:50:01.110Z,1.10
2022-12-22T04:00:01.050Z,1.40
2022-12-22T04:10:01.189Z,1.10
2022-12-22T04:20:01.338Z,1.10
2022-12-22T04:30:01.557Z,1.20
2022-12-22T04:40:01.227Z,1.10
2022-12-22T04:50:01.508Z,1.30
2022-12-22T05:00:01.834Z,1.10
2022-12-22T05:10:01.367Z,1.20
2022-12-22T05:20:03.087Z,1.00
2022-12-22T05:30:01.134Z,1.00
2022-12-22T05:40:01.010Z,1.10
2022-12-22T05:50:01.933Z,1.10
2022-12-22T06:00:01.300Z,1.20
2022-12-22T06:10:03.916Z,1.00
2022-12-22T06:20:00.923Z,1.10
2022-12-22T06:30:00.235Z,1.10
2022-12-22T06:40:01.050Z,1.20
2022-12-22T06:50:00.986Z,1.10
2022-12-22T07:00:01.253Z,1.20
2022-12-22T07:10:01.118Z,1.00
2022-12-22T07:20:00.997Z,1.10
2022-12-22T07:30:00.157Z,1.20
2022-12-22T07:40:00.832Z,1.40
2022-12-22T07:50:01.002Z,1.10
2022-12-22T08:00:01.293Z,1.20
2022-12-22T08:10:01.540Z,1.10
2022-12-22T08:20:01.075Z,1.20
2022-12-22T08:30:01.980Z,1.00
2022-12-22T08:40:01.381Z,1.20
2022-12-22T08:50:01.128Z,1.00
2022-12-22T09:00:02.600Z,1.10
2022-12-22T09:10:01.979Z,1.10
2022-12-22T09:20:00.810Z,1.10
2022-12-22T09:30:01.676Z,1.10
2022-12-22T09:40:01.316Z,1.30
2022-12-22T09:50:01.141Z,1.20
2022-12-22T10:00:02.553Z,1.20
2022-12-22T10:10:00.182Z,1.50
2022-12-22T10:20:00.989Z,1.10
2022-12-22T10:30:01.389Z,1.70
2022-12-22T10:40:01.941Z,1.40
2022-12-22T11:00:01.378Z,1.10
2022-12-22T11:10:01.089Z,1.10
2022-12-22T11:20:01.460Z,1.40
2022-12-22T11:30:01.004Z,1.20
2022-12-22T11:40:01.235Z,2.30
2022-12-22T11:50:50.529Z,2.00
2022-12-22T12:00:01.357Z,2.30
2022-12-22T12:10:01.269Z,2.60
2022-12-22T12:20:01.163Z,2.50
2022-12-22T12:30:36.050Z,1.40
2022-12-22T12:40:01.075Z,2.10
2022-12-22T12:50:01.010Z,3.20
2022-12-22T13:00:00.978Z,2.80
2022-12-22T13:10:01.044Z,2.80
2022-12-22T13:20:01.310Z,3.00
2022-12-22T13:30:00.994Z,2.60
2022-12-22T13:40:00.160Z,1.30
2022-12-22T13:50:09.789Z,1.80
2022-12-22T14:00:01.089Z,1.40
2022-12-22T14:10:01.100Z,1.50
2022-12-22T14:20:01.077Z,1.60
2022-12-22T14:30:01.037Z,1.60
2022-12-22T14:40:01.307Z,1.90
2022-12-22T14:50:01.069Z,1.10
2022-12-22T15:00:00.913Z,1.70
2022-12-22T15:10:14.956Z,7.70
2022-12-22T15:20:01.094Z,36.30
2022-12-22T15:30:00.980Z,36.80
2022-12-22T15:40:00.987Z,3.20
2022-12-22T15:50:01.020Z,2.40
2022-12-22T16:00:01.969Z,1.60
2022-12-22T16:10:01.226Z,2.10
2022-12-22T16:20:01.058Z,1.30
2022-12-22T16:30:01.589Z,1.30
2022-12-22T16:40:01.336Z,1.40
2022-12-22T16:50:02.620Z,1.30
2022-12-22T17:00:01.082Z,1.20
2022-12-22T17:10:01.292Z,1.60
2022-12-22T17:20:01.365Z,1.30
2022-12-22T17:30:01.242Z,1.10
2022-12-22T17:40:01.405Z,1.10
2022-12-22T17:50:01.305Z,1.30
2022-12-22T18:00:01.142Z,1.40
2022-12-22T18:10:01.067Z,1.50
2022-12-22T18:20:01.125Z,1.20
2022-12-22T18:30:01.685Z,1.30
2022-12-22T18:40:01.773Z,1.20
2022-12-22T18:50:01.089Z,1.20
2022-12-22T19:00:01.155Z,1.00
2022-12-22T19:10:01.170Z,1.20
2022-12-22T19:20:01.038Z,1.20
2022-12-22T19:30:04.302Z,1.10
2022-12-22T19:40:01.347Z,1.10
2022-12-22T19:50:00.142Z,1.10
2022-12-22T20:00:01.480Z,1.50
2022-12-22T20:10:01.072Z,1.00
2022-12-22T20:20:00.952Z,1.00
2022-12-22T20:30:01.457Z,1.00
2022-12-22T20:40:01.317Z,1.00
2022-12-22T20:50:01.274Z,1.10
2022-12-22T21:00:03.133Z,1.10
2022-12-22T21:10:01.246Z,1.10
2022-12-22T21:20:01.260Z,1.00
2022-12-22T21:30:01.015Z,1.00
2022-12-22T21:40:00.194Z,1.00
2022-12-22T21:50:01.829Z,1.10
2022-12-22T22:00:01.263Z,1.00
2022-12-22T22:10:00.200Z,1.00
2022-12-22T22:20:01.264Z,1.00
2022-12-22T22:30:01.618Z,1.00
2022-12-22T22:40:02.153Z,1.00
2022-12-22T22:50:02.810Z,1.00
2022-12-22T23:00:01.666Z,1.00
2022-12-22T23:10:03.522Z,1.00
2022-12-22T23:20:01.953Z,1.00
2022-12-22T23:30:01.261Z,1.00
2022-12-22T23:40:25.487Z,1.00
2022-12-22T23:50:01.000Z,1.00
